sensor_id;sensor_type;location;lat;lon;timestamp;P1;durP1;ratioP1;P2;durP2;ratioP2
33952;SDS011;20231;42.710;23.280;2022-12-17T00:17:12;27.45;;;15.23;;
33952;SDS011;20231;42.710;23.280;2022-12-17T00:23:58;31.98;;;17.42;;
33952;SDS011;20231;42.710;23.280;2022-12-17T00:36:58;24.08;;;14.43;;
33952;SDS011;20231;42.710;23.280;2022-12-17T00:43:24;26.50;;;15.70;;
33952;SDS011;20231;42.710;23.280;2022-12-17T00:46:38;23.77;;;14.20;;
33952;SDS011;20231;42.710;23.280;2022-12-17T00:49:22;22.83;;;14.43;;
33952;SDS011;20231;42.710;23.280;2022-12-17T00:52:11;26.30;;;15.65;;
33952;SDS011;20231;42.710;23.280;2022-12-17T00:55:18;28.58;;;15.20;;
33952;SDS011;20231;42.710;23.280;2022-12-17T00:58:15;24.83;;;15.35;;
33952;SDS011;20231;42.710;23.280;2022-12-17T01:01:09;22.70;;;14.25;;
33952;SDS011;20231;42.710;23.280;2022-12-17T01:03:53;26.00;;;14.82;;
33952;SDS011;20231;42.710;23.280;2022-12-17T01:06:36;24.65;;;13.52;;
33952;SDS011;20231;42.710;23.280;2022-12-17T01:09:20;22.88;;;13.35;;
33952;SDS011;20231;42.710;23.280;2022-12-17T01:12:04;25.33;;;15.27;;
33952;SDS011;20231;42.710;23.280;2022-12-17T01:14:52;22.27;;;14.30;;
33952;SDS011;20231;42.710;23.280;2022-12-17T01:17:40;27.65;;;14.55;;
33952;SDS011;20231;42.710;23.280;2022-12-17T01:20:29;24.77;;;15.02;;
33952;SDS011;20231;42.710;23.280;2022-12-17T01:23:33;23.63;;;14.27;;
33952;SDS011;20231;42.710;23.280;2022-12-17T01:26:26;26.17;;;14.20;;
33952;SDS011;20231;42.710;23.280;2022-12-17T01:32:35;22.85;;;13.40;;
33952;SDS011;20231;42.710;23.280;2022-12-17T01:35:21;22.50;;;13.23;;
33952;SDS011;20231;42.710;23.280;2022-12-17T01:38:15;21.85;;;12.55;;
33952;SDS011;20231;42.710;23.280;2022-12-17T01:41:01;21.25;;;13.38;;
33952;SDS011;20231;42.710;23.280;2022-12-17T01:43:45;23.65;;;13.82;;
33952;SDS011;20231;42.710;23.280;2022-12-17T01:46:34;25.13;;;14.27;;
33952;SDS011;20231;42.710;23.280;2022-12-17T01:49:23;27.10;;;12.70;;
33952;SDS011;20231;42.710;23.280;2022-12-17T01:52:10;18.13;;;11.27;;
33952;SDS011;20231;42.710;23.280;2022-12-17T01:54:55;18.23;;;12.02;;
33952;SDS011;20231;42.710;23.280;2022-12-17T01:57:39;19.23;;;11.57;;
33952;SDS011;20231;42.710;23.280;2022-12-17T02:00:23;22.63;;;12.65;;
33952;SDS011;20231;42.710;23.280;2022-12-17T02:03:14;20.40;;;12.52;;
33952;SDS011;20231;42.710;23.280;2022-12-17T02:09:23;16.80;;;11.57;;
33952;SDS011;20231;42.710;23.280;2022-12-17T02:15:11;17.75;;;10.40;;
33952;SDS011;20231;42.710;23.280;2022-12-17T02:18:24;20.02;;;10.68;;
33952;SDS011;20231;42.710;23.280;2022-12-17T02:21:21;19.92;;;10.82;;
33952;SDS011;20231;42.710;23.280;2022-12-17T02:24:11;21.93;;;10.50;;
33952;SDS011;20231;42.710;23.280;2022-12-17T02:27:01;14.90;;;10.38;;
33952;SDS011;20231;42.710;23.280;2022-12-17T02:29:55;22.60;;;11.73;;
33952;SDS011;20231;42.710;23.280;2022-12-17T02:32:42;18.40;;;10.10;;
33952;SDS011;20231;42.710;23.280;2022-12-17T02:35:29;15.88;;;10.25;;
33952;SDS011;20231;42.710;23.280;2022-12-17T02:38:16;20.27;;;10.80;;
33952;SDS011;20231;42.710;23.280;2022-12-17T02:41:01;18.92;;;10.60;;
33952;SDS011;20231;42.710;23.280;2022-12-17T02:43:48;19.60;;;11.90;;
33952;SDS011;20231;42.710;23.280;2022-12-17T02:46:33;16.77;;;10.48;;
33952;SDS011;20231;42.710;23.280;2022-12-17T02:49:18;15.77;;;10.70;;
33952;SDS011;20231;42.710;23.280;2022-12-17T02:52:02;16.92;;;9.73;;
33952;SDS011;20231;42.710;23.280;2022-12-17T02:54:47;14.80;;;10.32;;
33952;SDS011;20231;42.710;23.280;2022-12-17T02:57:31;18.85;;;10.52;;
33952;SDS011;20231;42.710;23.280;2022-12-17T03:00:15;16.10;;;10.27;;
33952;SDS011;20231;42.710;23.280;2022-12-17T03:02:59;19.17;;;10.38;;
33952;SDS011;20231;42.710;23.280;2022-12-17T03:05:43;13.55;;;9.23;;
33952;SDS011;20231;42.710;23.280;2022-12-17T03:08:27;15.27;;;10.05;;
33952;SDS011;20231;42.710;23.280;2022-12-17T03:11:11;23.23;;;10.70;;
33952;SDS011;20231;42.710;23.280;2022-12-17T03:13:55;15.90;;;10.13;;
33952;SDS011;20231;42.710;23.280;2022-12-17T03:16:39;23.55;;;10.95;;
33952;SDS011;20231;42.710;23.280;2022-12-17T03:19:23;15.48;;;9.48;;
33952;SDS011;20231;42.710;23.280;2022-12-17T03:22:07;17.65;;;9.60;;
33952;SDS011;20231;42.710;23.280;2022-12-17T03:24:51;18.65;;;9.48;;
33952;SDS011;20231;42.710;23.280;2022-12-17T03:31:00;19.67;;;8.80;;
33952;SDS011;20231;42.710;23.280;2022-12-17T03:39:59;13.60;;;9.43;;
33952;SDS011;20231;42.710;23.280;2022-12-17T03:42:44;15.68;;;9.98;;
33952;SDS011;20231;42.710;23.280;2022-12-17T03:48:59;15.63;;;8.75;;
33952;SDS011;20231;42.710;23.280;2022-12-17T03:52:31;15.35;;;10.10;;
33952;SDS011;20231;42.710;23.280;2022-12-17T03:55:23;15.02;;;8.57;;
33952;SDS011;20231;42.710;23.280;2022-12-17T04:01:31;14.50;;;8.40;;
33952;SDS011;20231;42.710;23.280;2022-12-17T04:04:15;13.10;;;7.97;;
33952;SDS011;20231;42.710;23.280;2022-12-17T04:06:59;14.63;;;9.15;;
33952;SDS011;20231;42.710;23.280;2022-12-17T04:09:42;12.32;;;8.45;;
33952;SDS011;20231;42.710;23.280;2022-12-17T04:12:26;14.23;;;8.95;;
33952;SDS011;20231;42.710;23.280;2022-12-17T04:15:10;14.50;;;8.85;;
33952;SDS011;20231;42.710;23.280;2022-12-17T04:17:55;17.70;;;9.68;;
33952;SDS011;20231;42.710;23.280;2022-12-17T04:20:39;13.40;;;9.52;;
33952;SDS011;20231;42.710;23.280;2022-12-17T04:23:23;15.45;;;9.65;;
33952;SDS011;20231;42.710;23.280;2022-12-17T04:26:11;13.52;;;9.10;;
33952;SDS011;20231;42.710;23.280;2022-12-17T04:28:59;16.65;;;9.68;;
33952;SDS011;20231;42.710;23.280;2022-12-17T04:31:49;17.73;;;10.25;;
33952;SDS011;20231;42.710;23.280;2022-12-17T04:34:35;17.75;;;8.77;;
33952;SDS011;20231;42.710;23.280;2022-12-17T04:37:19;15.68;;;10.10;;
33952;SDS011;20231;42.710;23.280;2022-12-17T04:40:05;12.10;;;8.00;;
33952;SDS011;20231;42.710;23.280;2022-12-17T04:42:50;18.50;;;9.47;;
33952;SDS011;20231;42.710;23.280;2022-12-17T04:45:36;12.88;;;8.88;;
33952;SDS011;20231;42.710;23.280;2022-12-17T04:48:35;11.77;;;8.15;;
33952;SDS011;20231;42.710;23.280;2022-12-17T04:51:21;14.50;;;8.45;;
33952;SDS011;20231;42.710;23.280;2022-12-17T04:54:21;19.45;;;12.23;;
33952;SDS011;20231;42.710;23.280;2022-12-17T04:57:23;14.68;;;8.75;;
33952;SDS011;20231;42.710;23.280;2022-12-17T05:00:18;15.25;;;8.23;;
33952;SDS011;20231;42.710;23.280;2022-12-17T05:03:14;13.07;;;8.63;;
33952;SDS011;20231;42.710;23.280;2022-12-17T05:05:59;14.00;;;7.60;;
33952;SDS011;20231;42.710;23.280;2022-12-17T05:08:43;13.40;;;8.48;;
33952;SDS011;20231;42.710;23.280;2022-12-17T05:11:27;12.68;;;7.38;;
33952;SDS011;20231;42.710;23.280;2022-12-17T05:14:11;16.23;;;8.43;;
33952;SDS011;20231;42.710;23.280;2022-12-17T05:16:55;16.15;;;10.23;;
33952;SDS011;20231;42.710;23.280;2022-12-17T05:19:47;13.40;;;7.25;;
33952;SDS011;20231;42.710;23.280;2022-12-17T05:22:34;16.70;;;9.52;;
33952;SDS011;20231;42.710;23.280;2022-12-17T05:25:18;22.02;;;13.20;;
33952;SDS011;20231;42.710;23.280;2022-12-17T05:28:03;20.48;;;12.15;;
33952;SDS011;20231;42.710;23.280;2022-12-17T05:30:52;18.73;;;11.40;;
33952;SDS011;20231;42.710;23.280;2022-12-17T05:33:36;21.10;;;12.80;;
33952;SDS011;20231;42.710;23.280;2022-12-17T05:36:20;23.05;;;14.02;;
33952;SDS011;20231;42.710;23.280;2022-12-17T05:39:04;22.15;;;13.32;;
33952;SDS011;20231;42.710;23.280;2022-12-17T05:41:48;22.25;;;14.02;;
33952;SDS011;20231;42.710;23.280;2022-12-17T05:44:32;28.63;;;15.27;;
33952;SDS011;20231;42.710;23.280;2022-12-17T05:47:17;28.65;;;16.80;;
33952;SDS011;20231;42.710;23.280;2022-12-17T05:53:51;23.08;;;14.10;;
33952;SDS011;20231;42.710;23.280;2022-12-17T05:57:01;26.35;;;14.55;;
33952;SDS011;20231;42.710;23.280;2022-12-17T05:59:51;24.95;;;13.57;;
33952;SDS011;20231;42.710;23.280;2022-12-17T06:02:35;22.73;;;11.43;;
33952;SDS011;20231;42.710;23.280;2022-12-17T06:08:47;27.27;;;17.10;;
33952;SDS011;20231;42.710;23.280;2022-12-17T06:11:32;16.38;;;10.18;;
33952;SDS011;20231;42.710;23.280;2022-12-17T06:14:21;21.30;;;12.75;;
33952;SDS011;20231;42.710;23.280;2022-12-17T06:17:05;23.08;;;12.70;;
33952;SDS011;20231;42.710;23.280;2022-12-17T06:19:49;17.73;;;9.68;;
33952;SDS011;20231;42.710;23.280;2022-12-17T06:22:57;15.82;;;8.65;;
33952;SDS011;20231;42.710;23.280;2022-12-17T06:25:44;17.70;;;10.73;;
33952;SDS011;20231;42.710;23.280;2022-12-17T06:28:28;15.77;;;9.68;;
33952;SDS011;20231;42.710;23.280;2022-12-17T06:31:11;19.00;;;10.15;;
33952;SDS011;20231;42.710;23.280;2022-12-17T06:33:55;15.32;;;10.05;;
33952;SDS011;20231;42.710;23.280;2022-12-17T06:36:40;20.52;;;9.88;;
33952;SDS011;20231;42.710;23.280;2022-12-17T06:39:31;16.52;;;9.10;;
33952;SDS011;20231;42.710;23.280;2022-12-17T06:42:15;17.23;;;9.85;;
33952;SDS011;20231;42.710;23.280;2022-12-17T06:44:59;15.93;;;9.15;;
33952;SDS011;20231;42.710;23.280;2022-12-17T06:47:43;16.35;;;10.48;;
33952;SDS011;20231;42.710;23.280;2022-12-17T06:50:27;17.85;;;10.52;;
33952;SDS011;20231;42.710;23.280;2022-12-17T06:53:12;18.25;;;11.00;;
33952;SDS011;20231;42.710;23.280;2022-12-17T06:55:57;18.35;;;9.85;;
33952;SDS011;20231;42.710;23.280;2022-12-17T06:58:41;16.00;;;9.30;;
33952;SDS011;20231;42.710;23.280;2022-12-17T07:01:26;15.50;;;8.95;;
33952;SDS011;20231;42.710;23.280;2022-12-17T07:04:11;19.08;;;9.82;;
33952;SDS011;20231;42.710;23.280;2022-12-17T07:06:55;15.57;;;8.75;;
33952;SDS011;20231;42.710;23.280;2022-12-17T07:09:42;15.75;;;7.95;;
33952;SDS011;20231;42.710;23.280;2022-12-17T07:12:26;13.70;;;7.45;;
33952;SDS011;20231;42.710;23.280;2022-12-17T07:15:11;15.55;;;8.13;;
33952;SDS011;20231;42.710;23.280;2022-12-17T07:17:56;13.25;;;7.80;;
33952;SDS011;20231;42.710;23.280;2022-12-17T07:20:45;15.18;;;7.70;;
33952;SDS011;20231;42.710;23.280;2022-12-17T07:23:30;13.45;;;6.20;;
33952;SDS011;20231;42.710;23.280;2022-12-17T07:26:14;14.57;;;7.28;;
33952;SDS011;20231;42.710;23.280;2022-12-17T07:28:58;14.15;;;6.70;;
33952;SDS011;20231;42.710;23.280;2022-12-17T07:31:42;16.73;;;9.75;;
33952;SDS011;20231;42.710;23.280;2022-12-17T07:34:26;24.65;;;9.48;;
33952;SDS011;20231;42.710;23.280;2022-12-17T07:37:10;16.27;;;9.13;;
33952;SDS011;20231;42.710;23.280;2022-12-17T07:39:54;20.67;;;9.45;;
33952;SDS011;20231;42.710;23.280;2022-12-17T07:42:38;25.15;;;9.93;;
33952;SDS011;20231;42.710;23.280;2022-12-17T07:45:23;16.98;;;9.63;;
33952;SDS011;20231;42.710;23.280;2022-12-17T07:48:07;18.52;;;9.75;;
33952;SDS011;20231;42.710;23.280;2022-12-17T07:50:51;18.20;;;9.63;;
33952;SDS011;20231;42.710;23.280;2022-12-17T07:53:36;16.63;;;10.10;;
33952;SDS011;20231;42.710;23.280;2022-12-17T07:56:20;19.77;;;10.48;;
33952;SDS011;20231;42.710;23.280;2022-12-17T07:59:04;16.75;;;9.73;;
33952;SDS011;20231;42.710;23.280;2022-12-17T08:01:48;18.02;;;9.52;;
33952;SDS011;20231;42.710;23.280;2022-12-17T08:04:32;16.13;;;9.48;;
33952;SDS011;20231;42.710;23.280;2022-12-17T08:07:16;26.27;;;12.88;;
33952;SDS011;20231;42.710;23.280;2022-12-17T08:10:00;29.73;;;15.77;;
33952;SDS011;20231;42.710;23.280;2022-12-17T08:13:02;29.70;;;16.73;;
33952;SDS011;20231;42.710;23.280;2022-12-17T08:15:47;33.75;;;16.30;;
33952;SDS011;20231;42.710;23.280;2022-12-17T08:18:34;26.85;;;14.93;;
33952;SDS011;20231;42.710;23.280;2022-12-17T08:21:18;24.70;;;13.02;;
33952;SDS011;20231;42.710;23.280;2022-12-17T08:24:02;20.77;;;10.95;;
33952;SDS011;20231;42.710;23.280;2022-12-17T08:26:47;13.18;;;8.07;;
33952;SDS011;20231;42.710;23.280;2022-12-17T08:29:34;17.85;;;7.40;;
33952;SDS011;20231;42.710;23.280;2022-12-17T08:32:18;11.77;;;7.28;;
33952;SDS011;20231;42.710;23.280;2022-12-17T08:35:02;16.08;;;9.38;;
33952;SDS011;20231;42.710;23.280;2022-12-17T08:37:46;17.80;;;9.93;;
33952;SDS011;20231;42.710;23.280;2022-12-17T08:40:30;19.52;;;9.88;;
33952;SDS011;20231;42.710;23.280;2022-12-17T08:43:14;21.33;;;11.75;;
33952;SDS011;20231;42.710;23.280;2022-12-17T08:45:58;22.15;;;11.85;;
33952;SDS011;20231;42.710;23.280;2022-12-17T08:48:42;28.73;;;14.23;;
33952;SDS011;20231;42.710;23.280;2022-12-17T08:51:26;28.40;;;16.63;;
33952;SDS011;20231;42.710;23.280;2022-12-17T08:54:10;18.33;;;8.27;;
33952;SDS011;20231;42.710;23.280;2022-12-17T08:56:56;21.10;;;8.27;;
33952;SDS011;20231;42.710;23.280;2022-12-17T08:59:40;15.98;;;6.05;;
33952;SDS011;20231;42.710;23.280;2022-12-17T09:02:24;10.75;;;5.43;;
33952;SDS011;20231;42.710;23.280;2022-12-17T09:05:08;14.30;;;5.97;;
33952;SDS011;20231;42.710;23.280;2022-12-17T09:07:59;13.30;;;4.65;;
33952;SDS011;20231;42.710;23.280;2022-12-17T09:10:44;15.90;;;5.53;;
33952;SDS011;20231;42.710;23.280;2022-12-17T09:13:28;9.40;;;5.93;;
33952;SDS011;20231;42.710;23.280;2022-12-17T09:16:12;9.77;;;5.05;;
33952;SDS011;20231;42.710;23.280;2022-12-17T09:18:56;12.13;;;5.80;;
33952;SDS011;20231;42.710;23.280;2022-12-17T09:21:40;10.10;;;7.07;;
33952;SDS011;20231;42.710;23.280;2022-12-17T09:24:24;12.15;;;6.80;;
33952;SDS011;20231;42.710;23.280;2022-12-17T09:27:08;16.55;;;7.15;;
33952;SDS011;20231;42.710;23.280;2022-12-17T09:29:51;12.73;;;6.55;;
33952;SDS011;20231;42.710;23.280;2022-12-17T09:32:35;10.75;;;6.82;;
33952;SDS011;20231;42.710;23.280;2022-12-17T09:35:19;15.80;;;6.45;;
33952;SDS011;20231;42.710;23.280;2022-12-17T09:38:03;10.80;;;5.85;;
33952;SDS011;20231;42.710;23.280;2022-12-17T09:40:47;8.30;;;3.80;;
33952;SDS011;20231;42.710;23.280;2022-12-17T09:47:02;6.10;;;3.55;;
33952;SDS011;20231;42.710;23.280;2022-12-17T09:50:13;5.20;;;3.53;;
33952;SDS011;20231;42.710;23.280;2022-12-17T09:53:02;5.47;;;3.58;;
33952;SDS011;20231;42.710;23.280;2022-12-17T09:56:11;5.93;;;2.55;;
33952;SDS011;20231;42.710;23.280;2022-12-17T09:58:57;5.43;;;1.70;;
33952;SDS011;20231;42.710;23.280;2022-12-17T10:01:42;5.20;;;1.65;;
33952;SDS011;20231;42.710;23.280;2022-12-17T10:04:41;7.13;;;2.38;;
33952;SDS011;20231;42.710;23.280;2022-12-17T10:07:30;5.82;;;2.53;;
33952;SDS011;20231;42.710;23.280;2022-12-17T10:10:24;5.50;;;1.73;;
33952;SDS011;20231;42.710;23.280;2022-12-17T10:13:10;7.95;;;1.98;;
33952;SDS011;20231;42.710;23.280;2022-12-17T10:15:57;3.22;;;1.73;;
33952;SDS011;20231;42.710;23.280;2022-12-17T10:18:42;5.95;;;1.80;;
33952;SDS011;20231;42.710;23.280;2022-12-17T10:21:26;2.63;;;1.10;;
33952;SDS011;20231;42.710;23.280;2022-12-17T10:24:10;1.08;;;0.98;;
33952;SDS011;20231;42.710;23.280;2022-12-17T10:26:54;3.72;;;1.00;;
33952;SDS011;20231;42.710;23.280;2022-12-17T10:29:39;4.93;;;1.30;;
33952;SDS011;20231;42.710;23.280;2022-12-17T10:32:24;4.00;;;1.55;;
33952;SDS011;20231;42.710;23.280;2022-12-17T10:38:26;5.85;;;1.60;;
33952;SDS011;20231;42.710;23.280;2022-12-17T10:44:28;3.03;;;1.30;;
33952;SDS011;20231;42.710;23.280;2022-12-17T10:47:17;5.90;;;3.40;;
33952;SDS011;20231;42.710;23.280;2022-12-17T10:50:04;16.10;;;7.90;;
33952;SDS011;20231;42.710;23.280;2022-12-17T10:52:56;10.10;;;6.50;;
33952;SDS011;20231;42.710;23.280;2022-12-17T10:55:53;10.15;;;6.38;;
33952;SDS011;20231;42.710;23.280;2022-12-17T10:58:43;15.35;;;9.65;;
33952;SDS011;20231;42.710;23.280;2022-12-17T11:01:31;15.95;;;10.32;;
33952;SDS011;20231;42.710;23.280;2022-12-17T11:04:26;12.98;;;8.25;;
33952;SDS011;20231;42.710;23.280;2022-12-17T11:10:13;10.20;;;5.75;;
33952;SDS011;20231;42.710;23.280;2022-12-17T11:13:01;5.90;;;3.15;;
33952;SDS011;20231;42.710;23.280;2022-12-17T11:15:52;4.78;;;2.35;;
33952;SDS011;20231;42.710;23.280;2022-12-17T11:21:32;5.20;;;1.85;;
33952;SDS011;20231;42.710;23.280;2022-12-17T11:24:27;4.50;;;1.88;;
33952;SDS011;20231;42.710;23.280;2022-12-17T11:27:19;3.28;;;1.75;;
33952;SDS011;20231;42.710;23.280;2022-12-17T11:30:11;2.92;;;1.92;;
33952;SDS011;20231;42.710;23.280;2022-12-17T11:36:26;6.38;;;3.40;;
33952;SDS011;20231;42.710;23.280;2022-12-17T11:39:20;6.80;;;4.33;;
33952;SDS011;20231;42.710;23.280;2022-12-17T11:48:45;7.75;;;4.55;;
33952;SDS011;20231;42.710;23.280;2022-12-17T12:01:25;8.55;;;4.43;;
33952;SDS011;20231;42.710;23.280;2022-12-17T12:05:12;9.30;;;4.43;;
33952;SDS011;20231;42.710;23.280;2022-12-17T12:07:49;19.23;;;9.30;;
33952;SDS011;20231;42.710;23.280;2022-12-17T12:16:50;27.00;;;12.25;;
33952;SDS011;20231;42.710;23.280;2022-12-17T12:22:50;11.85;;;5.97;;
33952;SDS011;20231;42.710;23.280;2022-12-17T12:25:37;13.38;;;7.00;;
33952;SDS011;20231;42.710;23.280;2022-12-17T12:31:57;29.45;;;12.13;;
33952;SDS011;20231;42.710;23.280;2022-12-17T12:34:49;106.68;;;49.38;;
33952;SDS011;20231;42.710;23.280;2022-12-17T12:37:35;31.60;;;17.23;;
33952;SDS011;20231;42.710;23.280;2022-12-17T12:46:04;8.88;;;4.68;;
33952;SDS011;20231;42.710;23.280;2022-12-17T12:52:07;6.85;;;2.95;;
33952;SDS011;20231;42.710;23.280;2022-12-17T12:54:53;9.85;;;6.07;;
33952;SDS011;20231;42.710;23.280;2022-12-17T12:57:40;16.05;;;8.43;;
33952;SDS011;20231;42.710;23.280;2022-12-17T13:00:38;10.75;;;6.65;;
33952;SDS011;20231;42.710;23.280;2022-12-17T13:03:52;10.63;;;6.30;;
33952;SDS011;20231;42.710;23.280;2022-12-17T13:12:07;14.48;;;6.82;;
33952;SDS011;20231;42.710;23.280;2022-12-17T13:17:22;14.63;;;8.18;;
33952;SDS011;20231;42.710;23.280;2022-12-17T13:24:48;12.35;;;7.57;;
33952;SDS011;20231;42.710;23.280;2022-12-17T13:39:27;15.43;;;8.95;;
33952;SDS011;20231;42.710;23.280;2022-12-17T13:41:54;11.75;;;8.43;;
33952;SDS011;20231;42.710;23.280;2022-12-17T13:44:24;13.73;;;8.65;;
33952;SDS011;20231;42.710;23.280;2022-12-17T13:46:53;25.58;;;11.65;;
33952;SDS011;20231;42.710;23.280;2022-12-17T13:49:29;20.65;;;10.75;;
33952;SDS011;20231;42.710;23.280;2022-12-17T13:54:44;15.80;;;8.32;;
33952;SDS011;20231;42.710;23.280;2022-12-17T13:57:12;21.25;;;11.38;;
33952;SDS011;20231;42.710;23.280;2022-12-17T14:04:50;22.00;;;13.05;;
33952;SDS011;20231;42.710;23.280;2022-12-17T14:07:17;22.15;;;10.02;;
33952;SDS011;20231;42.710;23.280;2022-12-17T14:09:43;20.98;;;9.93;;
33952;SDS011;20231;42.710;23.280;2022-12-17T14:12:09;18.55;;;8.13;;
33952;SDS011;20231;42.710;23.280;2022-12-17T14:15:01;26.40;;;14.80;;
33952;SDS011;20231;42.710;23.280;2022-12-17T14:17:35;30.23;;;14.60;;
33952;SDS011;20231;42.710;23.280;2022-12-17T14:20:10;23.48;;;13.43;;
33952;SDS011;20231;42.710;23.280;2022-12-17T14:22:42;25.85;;;12.13;;
33952;SDS011;20231;42.710;23.280;2022-12-17T14:25:21;18.45;;;11.60;;
33952;SDS011;20231;42.710;23.280;2022-12-17T14:27:59;14.95;;;8.63;;
33952;SDS011;20231;42.710;23.280;2022-12-17T14:30:32;21.52;;;10.27;;
33952;SDS011;20231;42.710;23.280;2022-12-17T14:33:01;19.30;;;9.85;;
33952;SDS011;20231;42.710;23.280;2022-12-17T14:35:32;16.42;;;8.35;;
33952;SDS011;20231;42.710;23.280;2022-12-17T14:38:00;15.48;;;8.85;;
33952;SDS011;20231;42.710;23.280;2022-12-17T14:40:26;11.30;;;7.63;;
33952;SDS011;20231;42.710;23.280;2022-12-17T14:42:52;19.52;;;9.18;;
33952;SDS011;20231;42.710;23.280;2022-12-17T14:45:23;14.68;;;9.30;;
33952;SDS011;20231;42.710;23.280;2022-12-17T14:47:57;16.67;;;9.75;;
33952;SDS011;20231;42.710;23.280;2022-12-17T14:50:25;18.05;;;11.38;;
33952;SDS011;20231;42.710;23.280;2022-12-17T14:52:54;16.52;;;10.88;;
33952;SDS011;20231;42.710;23.280;2022-12-17T15:03:22;59.33;;;38.33;;
33952;SDS011;20231;42.710;23.280;2022-12-17T15:06:08;62.70;;;40.45;;
33952;SDS011;20231;42.710;23.280;2022-12-17T15:08:55;40.30;;;26.98;;
33952;SDS011;20231;42.710;23.280;2022-12-17T15:11:21;49.10;;;38.38;;
33952;SDS011;20231;42.710;23.280;2022-12-17T15:13:46;50.88;;;42.72;;
33952;SDS011;20231;42.710;23.280;2022-12-17T15:16:12;45.50;;;32.17;;
33952;SDS011;20231;42.710;23.280;2022-12-17T15:18:37;32.88;;;22.85;;
33952;SDS011;20231;42.710;23.280;2022-12-17T15:21:03;23.23;;;14.13;;
33952;SDS011;20231;42.710;23.280;2022-12-17T15:23:29;29.10;;;16.55;;
33952;SDS011;20231;42.710;23.280;2022-12-17T15:25:55;57.22;;;38.17;;
33952;SDS011;20231;42.710;23.280;2022-12-17T15:28:21;56.75;;;40.33;;
33952;SDS011;20231;42.710;23.280;2022-12-17T15:30:47;57.97;;;38.67;;
33952;SDS011;20231;42.710;23.280;2022-12-17T15:33:13;58.45;;;36.63;;
33952;SDS011;20231;42.710;23.280;2022-12-17T15:35:40;53.13;;;32.90;;
33952;SDS011;20231;42.710;23.280;2022-12-17T15:38:06;37.25;;;23.55;;
33952;SDS011;20231;42.710;23.280;2022-12-17T15:40:35;22.67;;;14.18;;
33952;SDS011;20231;42.710;23.280;2022-12-17T15:43:01;22.27;;;13.13;;
33952;SDS011;20231;42.710;23.280;2022-12-17T15:45:36;17.05;;;10.32;;
33952;SDS011;20231;42.710;23.280;2022-12-17T15:48:02;18.42;;;11.15;;
33952;SDS011;20231;42.710;23.280;2022-12-17T15:50:28;34.03;;;18.38;;
33952;SDS011;20231;42.710;23.280;2022-12-17T15:52:53;25.90;;;13.43;;
33952;SDS011;20231;42.710;23.280;2022-12-17T15:55:19;26.52;;;15.45;;
33952;SDS011;20231;42.710;23.280;2022-12-17T15:57:44;27.58;;;16.48;;
33952;SDS011;20231;42.710;23.280;2022-12-17T16:00:09;35.15;;;21.52;;
33952;SDS011;20231;42.710;23.280;2022-12-17T16:02:35;35.50;;;22.30;;
33952;SDS011;20231;42.710;23.280;2022-12-17T16:05:01;40.03;;;25.05;;
33952;SDS011;20231;42.710;23.280;2022-12-17T16:07:26;33.70;;;22.38;;
33952;SDS011;20231;42.710;23.280;2022-12-17T16:09:51;37.00;;;23.42;;
33952;SDS011;20231;42.710;23.280;2022-12-17T16:12:17;37.70;;;23.65;;
33952;SDS011;20231;42.710;23.280;2022-12-17T16:14:42;31.15;;;18.33;;
33952;SDS011;20231;42.710;23.280;2022-12-17T16:17:07;41.42;;;25.13;;
33952;SDS011;20231;42.710;23.280;2022-12-17T16:19:33;152.18;;;107.10;;
33952;SDS011;20231;42.710;23.280;2022-12-17T16:21:58;239.25;;;166.48;;
33952;SDS011;20231;42.710;23.280;2022-12-17T16:24:24;157.23;;;112.95;;
33952;SDS011;20231;42.710;23.280;2022-12-17T16:26:49;170.63;;;124.95;;
33952;SDS011;20231;42.710;23.280;2022-12-17T16:29:15;276.73;;;209.00;;
33952;SDS011;20231;42.710;23.280;2022-12-17T16:31:40;145.30;;;106.07;;
33952;SDS011;20231;42.710;23.280;2022-12-17T16:34:09;100.57;;;75.25;;
33952;SDS011;20231;42.710;23.280;2022-12-17T16:36:36;155.88;;;113.78;;
33952;SDS011;20231;42.710;23.280;2022-12-17T16:39:01;225.05;;;158.73;;
33952;SDS011;20231;42.710;23.280;2022-12-17T16:41:28;391.23;;;280.65;;
33952;SDS011;20231;42.710;23.280;2022-12-17T16:43:53;347.55;;;236.73;;
33952;SDS011;20231;42.710;23.280;2022-12-17T16:46:40;269.25;;;173.38;;
33952;SDS011;20231;42.710;23.280;2022-12-17T16:49:13;272.27;;;173.05;;
33952;SDS011;20231;42.710;23.280;2022-12-17T16:51:43;290.30;;;199.40;;
33952;SDS011;20231;42.710;23.280;2022-12-17T16:54:11;306.17;;;211.80;;
33952;SDS011;20231;42.710;23.280;2022-12-17T16:56:39;305.25;;;208.50;;
33952;SDS011;20231;42.710;23.280;2022-12-17T16:59:05;315.70;;;213.30;;
33952;SDS011;20231;42.710;23.280;2022-12-17T17:01:33;295.40;;;213.73;;
33952;SDS011;20231;42.710;23.280;2022-12-17T17:03:59;279.85;;;204.52;;
33952;SDS011;20231;42.710;23.280;2022-12-17T17:06:25;285.33;;;191.32;;
33952;SDS011;20231;42.710;23.280;2022-12-17T17:08:51;112.22;;;69.32;;
33952;SDS011;20231;42.710;23.280;2022-12-17T17:11:20;58.75;;;33.10;;
33952;SDS011;20231;42.710;23.280;2022-12-17T17:13:48;41.88;;;25.20;;
33952;SDS011;20231;42.710;23.280;2022-12-17T17:16:15;37.95;;;22.63;;
33952;SDS011;20231;42.710;23.280;2022-12-17T17:18:42;38.95;;;22.23;;
33952;SDS011;20231;42.710;23.280;2022-12-17T17:21:12;31.55;;;19.17;;
33952;SDS011;20231;42.710;23.280;2022-12-17T17:23:47;28.75;;;17.63;;
33952;SDS011;20231;42.710;23.280;2022-12-17T17:26:16;34.10;;;21.52;;
33952;SDS011;20231;42.710;23.280;2022-12-17T17:28:41;77.82;;;47.95;;
33952;SDS011;20231;42.710;23.280;2022-12-17T17:31:10;82.50;;;53.60;;
33952;SDS011;20231;42.710;23.280;2022-12-17T17:33:37;138.20;;;83.95;;
33952;SDS011;20231;42.710;23.280;2022-12-17T17:36:05;134.73;;;80.90;;
33952;SDS011;20231;42.710;23.280;2022-12-17T17:43:59;142.77;;;86.97;;
33952;SDS011;20231;42.710;23.280;2022-12-17T17:46:29;181.70;;;111.25;;
33952;SDS011;20231;42.710;23.280;2022-12-17T17:48:56;120.20;;;71.53;;
33952;SDS011;20231;42.710;23.280;2022-12-17T17:51:23;117.57;;;70.88;;
33952;SDS011;20231;42.710;23.280;2022-12-17T17:53:51;151.73;;;89.57;;
33952;SDS011;20231;42.710;23.280;2022-12-17T17:56:22;104.00;;;60.30;;
33952;SDS011;20231;42.710;23.280;2022-12-17T17:58:53;120.38;;;70.22;;
33952;SDS011;20231;42.710;23.280;2022-12-17T18:01:27;61.53;;;38.85;;
33952;SDS011;20231;42.710;23.280;2022-12-17T18:03:56;80.40;;;45.88;;
33952;SDS011;20231;42.710;23.280;2022-12-17T18:06:23;81.30;;;47.38;;
33952;SDS011;20231;42.710;23.280;2022-12-17T18:08:50;78.25;;;50.65;;
33952;SDS011;20231;42.710;23.280;2022-12-17T18:11:16;77.63;;;41.40;;
33952;SDS011;20231;42.710;23.280;2022-12-17T18:13:43;77.13;;;43.08;;
33952;SDS011;20231;42.710;23.280;2022-12-17T18:18:49;61.72;;;33.63;;
33952;SDS011;20231;42.710;23.280;2022-12-17T18:21:17;47.40;;;29.80;;
33952;SDS011;20231;42.710;23.280;2022-12-17T18:23:43;44.15;;;27.17;;
33952;SDS011;20231;42.710;23.280;2022-12-17T18:26:16;37.67;;;25.23;;
33952;SDS011;20231;42.710;23.280;2022-12-17T18:28:43;30.58;;;19.48;;
33952;SDS011;20231;42.710;23.280;2022-12-17T18:31:11;30.58;;;17.60;;